createdAt,value
2019-05-09T00:02:39.148Z,14.46
2019-05-09T00:05:28.426Z,14.44
2019-05-09T00:08:18.433Z,14.42
2019-05-09T00:11:07.855Z,14.40
2019-05-09T00:13:57.846Z,14.41
2019-05-09T00:16:47.648Z,14.42
2019-05-09T00:19:37.801Z,14.41
2019-05-09T00:22:27.361Z,14.39
2019-05-09T00:25:17.190Z,14.39
2019-05-09T00:28:07.307Z,14.42
2019-05-09T00:31:07.944Z,14.45
2019-05-09T00:34:01.143Z,14.45
2019-05-09T00:36:50.956Z,14.49
2019-05-09T00:39:40.637Z,14.49
2019-05-09T00:42:30.566Z,14.50
2019-05-09T00:45:48.843Z,14.55
2019-05-09T00:49:14.029Z,14.55
2019-05-09T00:52:04.031Z,14.55
2019-05-09T00:54:53.857Z,14.56
2019-05-09T00:57:44.053Z,14.58
2019-05-09T01:00:33.763Z,14.59
2019-05-09T01:03:23.606Z,14.59
2019-05-09T01:06:13.701Z,14.60
2019-05-09T01:09:05.199Z,14.59
2019-05-09T01:11:55.264Z,14.59
2019-05-09T01:14:46.136Z,14.62
2019-05-09T01:17:36.323Z,14.63
2019-05-09T01:20:26.560Z,14.62
2019-05-09T01:23:16.736Z,14.64
2019-05-09T01:26:06.510Z,14.64
2019-05-09T01:28:56.670Z,14.65
2019-05-09T01:31:46.544Z,14.67
2019-05-09T01:34:37.440Z,14.69
2019-05-09T01:37:27.202Z,14.70
2019-05-09T01:40:17.426Z,14.71
2019-05-09T01:43:07.268Z,14.69
2019-05-09T01:45:57.057Z,14.64
2019-05-09T01:48:47.066Z,14.63
2019-05-09T01:51:37.107Z,14.63
2019-05-09T01:54:28.194Z,14.62
2019-05-09T01:57:18.842Z,14.60
2019-05-09T02:00:10.458Z,14.55
2019-05-09T02:03:00.128Z,14.54
2019-05-09T02:05:50.365Z,14.54
2019-05-09T02:08:40.331Z,14.51
2019-05-09T02:11:41.681Z,14.49
2019-05-09T02:14:34.301Z,14.47
2019-05-09T02:18:01.090Z,14.46
2019-05-09T02:20:40.255Z,14.45
2019-05-09T02:23:30.183Z,14.38
2019-05-09T02:26:19.713Z,14.36
2019-05-09T02:29:09.541Z,14.36
2019-05-09T02:31:59.474Z,14.35
2019-05-09T02:34:49.400Z,14.34
2019-05-09T02:37:39.232Z,14.33
2019-05-09T02:40:30.176Z,14.31
2019-05-09T02:43:20.220Z,14.31
2019-05-09T02:46:18.898Z,14.28
2019-05-09T02:49:09.125Z,14.24
2019-05-09T02:51:59.566Z,14.24
2019-05-09T02:54:50.283Z,14.24
2019-05-09T02:57:40.511Z,14.21
2019-05-09T03:00:48.359Z,14.20
2019-05-09T03:03:39.482Z,14.20
2019-05-09T03:06:29.219Z,14.16
2019-05-09T03:09:19.436Z,14.18
2019-05-09T03:12:22.797Z,14.17
2019-05-09T03:15:01.052Z,14.15
2019-05-09T03:17:51.313Z,14.15
2019-05-09T03:20:51.327Z,14.14
2019-05-09T03:23:41.307Z,14.13
2019-05-09T03:26:34.643Z,14.13
2019-05-09T03:29:30.215Z,14.12
2019-05-09T03:32:20.221Z,14.13
2019-05-09T03:35:10.757Z,14.15
2019-05-09T03:38:08.163Z,14.19
2019-05-09T03:40:58.406Z,14.20
2019-05-09T03:43:48.534Z,14.14
2019-05-09T03:46:51.454Z,14.19
2019-05-09T03:49:41.603Z,14.22
2019-05-09T03:52:31.783Z,14.24
2019-05-09T03:55:28.146Z,14.25
2019-05-09T03:58:20.044Z,14.27
2019-05-09T04:01:10.960Z,14.28
2019-05-09T04:04:01.697Z,14.29
2019-05-09T04:06:51.493Z,14.29
2019-05-09T04:09:41.490Z,14.30
2019-05-09T04:12:31.807Z,14.31
2019-05-09T04:15:22.063Z,14.30
2019-05-09T04:18:12.053Z,14.28
2019-05-09T04:21:02.345Z,14.27
2019-05-09T04:23:52.240Z,14.27
2019-05-09T04:26:50.737Z,14.30
2019-05-09T04:29:41.021Z,14.30
2019-05-09T04:32:30.931Z,14.32
2019-05-09T04:35:20.683Z,14.33
2019-05-09T04:38:10.451Z,14.34
2019-05-09T04:41:00.584Z,14.34
2019-05-09T04:43:50.410Z,14.36
2019-05-09T04:46:40.261Z,14.37
2019-05-09T04:49:39.673Z,14.38
2019-05-09T04:52:22.293Z,14.43
2019-05-09T04:55:14.225Z,14.42
2019-05-09T04:58:04.415Z,14.41
2019-05-09T05:01:11.051Z,14.45
2019-05-09T05:04:00.788Z,14.47
2019-05-09T05:06:50.867Z,14.50
2019-05-09T05:09:40.689Z,14.50
2019-05-09T05:12:30.580Z,14.52
2019-05-09T05:15:20.644Z,14.55
2019-05-09T05:18:11.004Z,14.59
2019-05-09T05:21:00.657Z,14.61
2019-05-09T05:24:15.285Z,14.61
2019-05-09T05:27:05.028Z,14.63
2019-05-09T05:29:55.547Z,14.61
2019-05-09T05:33:04.254Z,14.63
2019-05-09T05:35:57.525Z,14.64
2019-05-09T05:38:47.956Z,14.68
2019-05-09T05:41:37.957Z,14.74
2019-05-09T05:44:28.495Z,14.78
2019-05-09T05:47:29.326Z,14.81
2019-05-09T05:50:18.980Z,14.82
2019-05-09T05:53:09.209Z,14.82
2019-05-09T05:55:59.342Z,14.84
2019-05-09T05:58:49.275Z,14.84
2019-05-09T06:01:39.472Z,14.88
2019-05-09T06:04:29.448Z,14.92
2019-05-09T06:07:19.866Z,14.96
2019-05-09T06:10:10.614Z,15.00
2019-05-09T06:13:00.371Z,15.05
2019-05-09T06:15:50.249Z,15.10
2019-05-09T06:18:39.691Z,15.17
2019-05-09T06:21:31.856Z,15.23
2019-05-09T06:24:21.761Z,15.24
2019-05-09T06:27:11.676Z,15.22
2019-05-09T06:30:04.874Z,15.21
2019-05-09T06:32:54.955Z,15.25
2019-05-09T06:35:45.325Z,15.33
2019-05-09T06:38:37.595Z,15.39
2019-05-09T06:41:28.632Z,15.42
2019-05-09T06:44:28.110Z,15.47
2019-05-09T06:47:22.944Z,15.49
2019-05-09T06:50:15.635Z,15.53
2019-05-09T06:53:07.796Z,15.59
2019-05-09T06:55:58.010Z,15.67
2019-05-09T06:58:48.196Z,15.75
2019-05-09T07:01:48.175Z,15.82
2019-05-09T07:04:47.580Z,15.92
2019-05-09T07:08:02.917Z,16.02
2019-05-09T07:10:53.264Z,16.13
2019-05-09T07:13:43.852Z,16.24
2019-05-09T07:16:33.818Z,16.32
2019-05-09T07:19:24.303Z,16.42
2019-05-09T07:22:34.306Z,16.54
2019-05-09T07:25:47.718Z,16.67
2019-05-09T07:28:37.758Z,16.80
2019-05-09T07:31:35.011Z,16.86
2019-05-09T07:34:33.534Z,16.87
2019-05-09T07:37:23.557Z,16.98
2019-05-09T07:40:13.411Z,17.17
2019-05-09T07:43:03.548Z,17.38
2019-05-09T07:46:21.911Z,17.51
2019-05-09T07:49:13.452Z,17.59
2019-05-09T07:52:06.852Z,17.66
2019-05-09T07:54:54.545Z,17.76
2019-05-09T07:57:50.008Z,17.84
2019-05-09T08:00:38.668Z,17.96
2019-05-09T08:03:28.970Z,18.15
2019-05-09T08:06:18.600Z,18.28
2019-05-09T08:09:08.965Z,18.39
2019-05-09T08:11:58.982Z,18.40
2019-05-09T08:15:06.587Z,18.38
2019-05-09T08:17:40.718Z,18.31
2019-05-09T08:20:30.815Z,18.30
2019-05-09T08:23:20.683Z,18.31
2019-05-09T08:26:10.688Z,18.38
2019-05-09T08:29:01.092Z,18.46
2019-05-09T08:31:50.610Z,18.56
2019-05-09T08:34:40.396Z,18.57
2019-05-09T08:37:30.412Z,18.68
2019-05-09T08:40:21.517Z,18.82
2019-05-09T08:43:11.454Z,19.03
2019-05-09T08:46:01.628Z,19.23
2019-05-09T08:48:51.307Z,19.45
2019-05-09T08:52:06.431Z,19.55
2019-05-09T08:55:08.487Z,19.67
2019-05-09T08:57:59.304Z,19.71
2019-05-09T09:00:49.212Z,19.94
2019-05-09T09:03:39.999Z,20.34
2019-05-09T09:06:30.356Z,20.55
2019-05-09T09:09:20.714Z,20.68
2019-05-09T09:12:25.900Z,20.76
2019-05-09T09:15:02.019Z,20.94
2019-05-09T09:17:52.087Z,21.10
2019-05-09T09:20:43.218Z,21.27
2019-05-09T09:23:44.066Z,21.44
2019-05-09T09:26:27.549Z,21.71
2019-05-09T09:29:17.834Z,21.87
2019-05-09T09:32:08.600Z,22.01
2019-05-09T09:34:58.949Z,22.08
2019-05-09T09:37:52.147Z,22.08
2019-05-09T09:40:40.494Z,22.02
2019-05-09T09:43:30.352Z,21.86
2019-05-09T09:46:20.387Z,21.83
2019-05-09T09:49:10.500Z,21.82
2019-05-09T09:52:00.588Z,21.83
2019-05-09T09:54:50.162Z,21.80
2019-05-09T09:57:40.065Z,21.82
2019-05-09T10:00:58.771Z,21.96
2019-05-09T10:03:52.239Z,22.07
2019-05-09T10:06:42.460Z,22.17
2019-05-09T10:09:32.504Z,22.30
2019-05-09T10:12:22.746Z,22.56
2019-05-09T10:15:28.216Z,22.94
2019-05-09T10:18:27.544Z,23.27
2019-05-09T10:21:23.024Z,23.61
2019-05-09T10:24:12.843Z,24.29
2019-05-09T10:27:10.376Z,25.34
2019-05-09T10:30:00.101Z,26.09
2019-05-09T10:32:49.894Z,26.46
2019-05-09T10:35:39.843Z,26.52
2019-05-09T10:38:30.728Z,27.07
2019-05-09T10:41:20.981Z,27.92
2019-05-09T10:44:17.984Z,28.75
2019-05-09T10:47:23.696Z,29.54
2019-05-09T10:50:14.059Z,30.01
2019-05-09T10:53:04.583Z,30.52
2019-05-09T10:55:54.692Z,31.24
2019-05-09T10:58:45.063Z,31.63
2019-05-09T11:01:34.974Z,31.82
2019-05-09T11:04:25.083Z,32.24
2019-05-09T11:07:14.864Z,32.73
2019-05-09T11:10:20.787Z,33.17
2019-05-09T11:12:58.442Z,33.50
2019-05-09T11:15:48.348Z,33.97
2019-05-09T11:18:38.272Z,34.31
2019-05-09T11:21:28.868Z,34.27
2019-05-09T11:24:19.376Z,33.40
2019-05-09T11:27:09.513Z,32.34
2019-05-09T11:29:59.834Z,31.34
2019-05-09T11:32:50.080Z,30.37
2019-05-09T11:35:39.741Z,29.38
2019-05-09T11:38:36.530Z,28.56
2019-05-09T11:41:20.967Z,28.02
2019-05-09T11:44:11.193Z,27.91
2019-05-09T11:47:00.962Z,27.85
2019-05-09T11:49:50.749Z,27.76
2019-05-09T11:52:40.851Z,27.69
2019-05-09T11:55:36.037Z,27.69
2019-05-09T11:58:22.908Z,27.95
2019-05-09T12:01:13.300Z,28.05
2019-05-09T12:04:03.142Z,28.33
2019-05-09T12:06:53.206Z,28.84
2019-05-09T12:09:42.993Z,28.89
2019-05-09T12:12:32.852Z,28.97
2019-05-09T12:15:23.016Z,29.38
2019-05-09T12:18:12.868Z,29.86
2019-05-09T12:21:02.774Z,30.27
2019-05-09T12:23:53.000Z,30.49
2019-05-09T12:26:42.871Z,30.33
2019-05-09T12:29:32.522Z,29.95
2019-05-09T12:32:22.123Z,29.58
2019-05-09T12:35:12.120Z,29.18
2019-05-09T12:38:02.356Z,28.89
2019-05-09T12:40:52.485Z,28.59
2019-05-09T12:43:42.386Z,28.19
2019-05-09T12:46:32.660Z,27.93
2019-05-09T12:49:22.997Z,27.63
2019-05-09T12:52:12.763Z,27.30
2019-05-09T12:55:02.434Z,27.04
2019-05-09T12:57:52.516Z,26.80
2019-05-09T13:00:42.642Z,26.79
2019-05-09T13:03:32.521Z,26.95
2019-05-09T13:06:22.645Z,26.91
2019-05-09T13:09:12.350Z,26.74
2019-05-09T13:12:01.782Z,26.58
2019-05-09T13:14:51.484Z,26.35
2019-05-09T13:17:43.838Z,26.04
2019-05-09T13:20:33.698Z,25.89
2019-05-09T13:23:23.634Z,25.72
2019-05-09T13:26:14.781Z,25.67
2019-05-09T13:29:04.916Z,25.52
2019-05-09T13:31:54.719Z,25.52
2019-05-09T13:34:48.563Z,25.54
2019-05-09T13:37:38.484Z,25.61
2019-05-09T13:40:29.166Z,25.63
2019-05-09T13:43:19.368Z,25.64
2019-05-09T13:46:09.741Z,25.59
2019-05-09T13:49:10.940Z,25.46
2019-05-09T13:52:00.479Z,25.32
2019-05-09T13:54:44.753Z,25.26
2019-05-09T13:57:34.204Z,25.23
2019-05-09T14:00:24.564Z,25.22
2019-05-09T14:03:14.691Z,25.17
2019-05-09T14:06:04.685Z,25.08
2019-05-09T14:08:54.509Z,24.92
2019-05-09T14:11:44.848Z,24.79
2019-05-09T14:14:34.481Z,24.66
2019-05-09T14:17:42.095Z,24.64
2019-05-09T14:20:18.013Z,24.68
2019-05-09T14:23:11.464Z,24.61
2019-05-09T14:26:00.171Z,24.49
2019-05-09T14:28:50.250Z,24.51
2019-05-09T14:31:39.694Z,24.48
2019-05-09T14:34:30.275Z,24.45
2019-05-09T14:37:20.160Z,24.41
2019-05-09T14:40:10.630Z,24.35
2019-05-09T14:43:00.528Z,24.31
2019-05-09T14:45:50.742Z,24.26
2019-05-09T14:48:41.607Z,24.17
2019-05-09T14:51:31.568Z,24.12
2019-05-09T14:54:21.692Z,24.07
2019-05-09T14:57:11.549Z,24.01
2019-05-09T15:00:01.605Z,23.95
2019-05-09T15:02:51.688Z,23.88
2019-05-09T15:05:41.808Z,23.81
2019-05-09T15:08:31.685Z,23.80
2019-05-09T15:11:21.584Z,23.80
2019-05-09T15:14:12.591Z,23.82
2019-05-09T15:17:02.416Z,23.79
2019-05-09T15:20:00.095Z,23.74
2019-05-09T15:22:43.926Z,23.69
2019-05-09T15:25:33.931Z,23.62
2019-05-09T15:28:23.809Z,23.56
2019-05-09T15:31:13.190Z,23.48
2019-05-09T15:34:04.569Z,23.41
2019-05-09T15:36:54.672Z,23.33
2019-05-09T15:39:44.507Z,23.24
2019-05-09T15:42:34.912Z,23.18
2019-05-09T15:45:28.566Z,23.16
2019-05-09T15:48:18.353Z,23.14
2019-05-09T15:51:08.098Z,23.12
2019-05-09T15:53:58.171Z,23.11
2019-05-09T15:56:48.506Z,23.10
2019-05-09T15:59:39.110Z,23.09
2019-05-09T16:02:28.823Z,23.10
2019-05-09T16:05:19.703Z,23.15
2019-05-09T16:08:11.533Z,23.25
2019-05-09T16:11:00.937Z,23.32
2019-05-09T16:13:51.018Z,23.30
2019-05-09T16:16:40.941Z,23.24
2019-05-09T16:19:30.405Z,23.21
2019-05-09T16:22:20.747Z,23.16
2019-05-09T16:25:11.546Z,23.11
2019-05-09T16:28:01.837Z,23.04
2019-05-09T16:30:52.164Z,22.96
2019-05-09T16:33:41.772Z,22.87
2019-05-09T16:36:31.757Z,22.75
2019-05-09T16:39:22.140Z,22.59
2019-05-09T16:42:12.208Z,22.43
2019-05-09T16:45:03.604Z,22.29
2019-05-09T16:48:00.029Z,22.14
2019-05-09T16:51:00.599Z,21.98
2019-05-09T16:53:41.612Z,21.82
2019-05-09T16:56:31.469Z,21.63
2019-05-09T16:59:21.312Z,21.50
2019-05-09T17:02:23.823Z,21.38
2019-05-09T17:05:04.839Z,21.29
2019-05-09T17:07:54.946Z,21.20
2019-05-09T17:10:44.996Z,21.15
2019-05-09T17:13:35.750Z,21.08
2019-05-09T17:16:28.260Z,21.01
2019-05-09T17:19:19.275Z,20.92
2019-05-09T17:22:16.056Z,20.83
2019-05-09T17:25:07.855Z,20.75
2019-05-09T17:27:59.417Z,20.67
2019-05-09T17:30:49.437Z,20.58
2019-05-09T17:33:39.074Z,20.52
2019-05-09T17:36:28.844Z,20.47
2019-05-09T17:39:18.927Z,20.35
2019-05-09T17:42:08.928Z,20.30
2019-05-09T17:44:58.248Z,20.24
2019-05-09T17:47:48.533Z,20.18
2019-05-09T17:50:38.594Z,20.13
2019-05-09T17:53:32.853Z,20.06
2019-05-09T17:56:20.159Z,20.03
2019-05-09T17:59:10.072Z,19.98
2019-05-09T18:01:59.893Z,19.97
2019-05-09T18:04:49.802Z,19.95
2019-05-09T18:10:10.037Z,19.94
2019-05-09T18:12:59.883Z,19.90
2019-05-09T18:15:49.302Z,19.86
2019-05-09T18:18:39.117Z,19.83
2019-05-09T18:21:28.982Z,19.79
2019-05-09T18:24:20.178Z,19.75
2019-05-09T18:27:10.591Z,19.69
2019-05-09T18:30:00.384Z,19.61
2019-05-09T18:33:10.280Z,19.56
2019-05-09T18:35:59.975Z,19.51
2019-05-09T18:38:50.141Z,19.42
2019-05-09T18:41:39.201Z,19.31
2019-05-09T18:44:29.117Z,19.23
2019-05-09T18:47:19.381Z,19.17
2019-05-09T18:50:10.076Z,19.13
2019-05-09T18:53:00.154Z,19.08
2019-05-09T18:55:49.578Z,18.99
2019-05-09T18:58:39.373Z,18.92
2019-05-09T19:01:29.111Z,18.87
2019-05-09T19:04:19.382Z,18.83
2019-05-09T19:07:22.081Z,18.77
2019-05-09T19:10:01.194Z,18.73
2019-05-09T19:12:50.509Z,18.69
2019-05-09T19:15:47.699Z,18.62
2019-05-09T19:19:14.980Z,18.57
2019-05-09T19:22:20.424Z,18.50
2019-05-09T19:24:57.183Z,18.44
2019-05-09T19:27:47.147Z,18.36
2019-05-09T19:30:37.321Z,18.31
2019-05-09T19:33:27.393Z,18.27
2019-05-09T19:36:17.606Z,18.23
2019-05-09T19:39:13.936Z,18.20
2019-05-09T19:42:03.944Z,18.15
2019-05-09T19:44:54.007Z,18.12
2019-05-09T19:47:43.961Z,18.07
2019-05-09T19:50:33.958Z,18.07
2019-05-09T19:53:23.763Z,18.06
2019-05-09T19:56:14.007Z,18.03
2019-05-09T19:59:07.174Z,18.01
2019-05-09T20:01:55.244Z,18.03
2019-05-09T20:04:45.768Z,18.02
2019-05-09T20:07:35.543Z,18.01
2019-05-09T20:10:43.589Z,17.98
2019-05-09T20:13:52.672Z,18.00
2019-05-09T20:16:45.208Z,17.95
2019-05-09T20:19:35.284Z,17.97
2019-05-09T20:22:24.488Z,17.97
2019-05-09T20:25:14.316Z,17.96
2019-05-09T20:28:04.494Z,17.95
2019-05-09T20:30:54.405Z,17.93
2019-05-09T20:33:44.146Z,17.88
2019-05-09T20:36:34.182Z,17.83
2019-05-09T20:39:24.581Z,17.76
2019-05-09T20:42:14.785Z,17.72
2019-05-09T20:45:05.394Z,17.67
2019-05-09T20:47:56.188Z,17.63
2019-05-09T20:50:46.238Z,17.58
2019-05-09T20:53:36.555Z,17.56
2019-05-09T20:56:27.902Z,17.51
2019-05-09T20:59:18.295Z,17.47
2019-05-09T21:02:08.308Z,17.40
2019-05-09T21:04:58.452Z,17.33
2019-05-09T21:07:48.744Z,17.26
2019-05-09T21:10:39.133Z,17.20
2019-05-09T21:13:29.305Z,17.14
2019-05-09T21:16:19.382Z,17.10
2019-05-09T21:19:09.441Z,17.05
2019-05-09T21:21:59.768Z,16.98
2019-05-09T21:24:49.730Z,16.91
2019-05-09T21:27:39.492Z,16.84
2019-05-09T21:30:30.269Z,16.80
2019-05-09T21:33:20.171Z,16.75
2019-05-09T21:36:10.127Z,16.71
2019-05-09T21:38:59.932Z,16.67
2019-05-09T21:41:51.063Z,16.62
2019-05-09T21:44:41.109Z,16.60
2019-05-09T21:47:31.467Z,16.57
2019-05-09T21:50:21.493Z,16.54
2019-05-09T21:53:11.644Z,16.52
2019-05-09T21:56:01.427Z,16.49
2019-05-09T21:58:51.531Z,16.46
2019-05-09T22:01:42.284Z,16.39
2019-05-09T22:04:32.165Z,16.35
2019-05-09T22:07:21.913Z,16.32
2019-05-09T22:10:11.890Z,16.25
2019-05-09T22:13:01.278Z,16.21
2019-05-09T22:15:51.040Z,16.16
2019-05-09T22:18:41.207Z,16.12
2019-05-09T22:21:31.328Z,16.08
2019-05-09T22:24:21.879Z,16.06
2019-05-09T22:27:11.557Z,16.03
2019-05-09T22:30:02.036Z,16.02
2019-05-09T22:32:51.781Z,16.01
2019-05-09T22:35:42.173Z,16.02
2019-05-09T22:38:32.253Z,16.03
2019-05-09T22:41:22.084Z,16.02
2019-05-09T22:44:12.216Z,15.99
2019-05-09T22:47:02.299Z,15.97
2019-05-09T22:49:52.984Z,15.98
2019-05-09T22:52:42.944Z,15.97
2019-05-09T22:55:32.490Z,15.97
2019-05-09T22:58:22.655Z,15.96
2019-05-09T23:01:12.593Z,15.96
2019-05-09T23:04:02.881Z,15.98
2019-05-09T23:06:52.652Z,15.97
2019-05-09T23:09:42.806Z,15.97
2019-05-09T23:12:32.853Z,15.98
2019-05-09T23:15:22.792Z,16.00
2019-05-09T23:18:12.671Z,16.03
2019-05-09T23:21:02.893Z,16.03
2019-05-09T23:23:56.108Z,16.03
2019-05-09T23:26:46.808Z,16.02
2019-05-09T23:29:36.869Z,16.00
2019-05-09T23:32:40.356Z,15.49
2019-05-09T23:35:30.189Z,15.95
2019-05-09T23:38:20.213Z,15.92
2019-05-09T23:41:10.151Z,15.91
2019-05-09T23:43:59.920Z,15.91
2019-05-09T23:46:49.863Z,15.91
2019-05-09T23:49:39.865Z,15.91
2019-05-09T23:52:30.172Z,15.91
2019-05-09T23:55:38.232Z,15.90
2019-05-09T23:58:46.390Z,15.90
